createdAt,value
2023-01-13T00:00:20.376Z,14.10
2023-01-13T00:02:53.748Z,14.14
2023-01-13T00:05:07.124Z,14.18
2023-01-13T00:07:20.280Z,14.21
2023-01-13T00:09:33.603Z,14.24
2023-01-13T00:11:46.711Z,14.26
2023-01-13T00:14:00.623Z,14.28
2023-01-13T00:16:16.750Z,14.28
2023-01-13T00:18:31.113Z,14.30
2023-01-13T00:20:45.299Z,14.32
2023-01-13T00:23:00.154Z,14.33
2023-01-13T00:25:14.728Z,14.36
2023-01-13T00:27:28.519Z,14.39
2023-01-13T00:29:42.917Z,14.42
2023-01-13T00:31:59.362Z,14.43
2023-01-13T00:34:12.241Z,14.42
2023-01-13T00:36:27.801Z,14.42
2023-01-13T00:38:41.228Z,14.44
2023-01-13T00:41:01.777Z,14.48
2023-01-13T00:43:26.878Z,14.52
2023-01-13T00:45:41.306Z,14.56
2023-01-13T00:47:55.039Z,14.60
2023-01-13T00:50:08.739Z,14.62
2023-01-13T00:52:22.129Z,14.65
2023-01-13T00:54:35.147Z,14.66
2023-01-13T00:56:48.475Z,14.68
2023-01-13T00:59:03.439Z,14.69
2023-01-13T01:01:19.534Z,14.68
2023-01-13T01:03:32.897Z,14.65
2023-01-13T01:05:46.601Z,14.62
2023-01-13T01:07:59.738Z,14.60
2023-01-13T01:10:14.069Z,14.58
2023-01-13T01:12:27.232Z,14.56
2023-01-13T01:14:44.126Z,14.55
2023-01-13T01:16:57.913Z,14.54
2023-01-13T01:19:12.004Z,14.53
2023-01-13T01:21:27.692Z,14.52
2023-01-13T01:23:43.030Z,14.49
2023-01-13T01:25:56.719Z,14.49
2023-01-13T01:28:09.828Z,14.49
2023-01-13T01:30:23.972Z,14.50
2023-01-13T01:32:40.009Z,14.47
2023-01-13T01:34:53.900Z,14.45
2023-01-13T01:37:07.945Z,14.43
2023-01-13T01:39:21.942Z,14.41
2023-01-13T01:41:38.151Z,14.40
2023-01-13T01:44:03.919Z,14.40
2023-01-13T01:46:17.769Z,14.39
2023-01-13T01:48:32.420Z,14.39
2023-01-13T01:50:46.741Z,14.37
2023-01-13T01:53:03.309Z,14.35
2023-01-13T01:55:21.587Z,14.33
2023-01-13T01:57:42.691Z,14.30
2023-01-13T01:59:56.181Z,14.28
2023-01-13T02:02:10.187Z,14.27
2023-01-13T02:04:27.549Z,14.28
2023-01-13T02:06:41.349Z,14.31
2023-01-13T02:08:55.467Z,14.32
2023-01-13T02:11:29.059Z,14.31
2023-01-13T02:13:42.099Z,14.33
2023-01-13T02:16:05.173Z,14.38
2023-01-13T02:18:40.509Z,14.43
2023-01-13T02:21:11.665Z,14.55
2023-01-13T02:24:13.133Z,14.65
2023-01-13T02:27:02.000Z,14.72
2023-01-13T02:29:49.570Z,14.76
2023-01-13T02:32:08.356Z,14.81
2023-01-13T02:34:27.981Z,14.84
2023-01-13T02:36:49.960Z,14.88
2023-01-13T02:39:06.847Z,14.93
2023-01-13T02:41:42.230Z,14.96
2023-01-13T02:44:12.720Z,14.99
2023-01-13T02:46:32.063Z,14.99
2023-01-13T02:48:47.899Z,15.01
2023-01-13T02:51:04.794Z,15.02
2023-01-13T02:53:22.797Z,15.02
2023-01-13T02:55:41.481Z,15.03
2023-01-13T02:57:56.590Z,15.05
2023-01-13T03:00:13.478Z,15.07
2023-01-13T03:02:28.543Z,15.09
2023-01-13T03:04:56.239Z,15.08
2023-01-13T03:07:15.961Z,15.06
2023-01-13T03:09:36.451Z,15.04
2023-01-13T03:11:58.866Z,15.00
2023-01-13T03:14:22.028Z,14.97
2023-01-13T03:16:50.362Z,14.90
2023-01-13T03:19:15.728Z,14.83
2023-01-13T03:21:34.322Z,14.81
2023-01-13T03:23:55.180Z,14.79
2023-01-13T03:26:15.160Z,14.78
2023-01-13T03:28:33.730Z,14.77
2023-01-13T03:30:52.572Z,14.74
2023-01-13T03:33:11.220Z,14.72
2023-01-13T03:35:29.064Z,14.70
2023-01-13T03:37:45.703Z,14.67
2023-01-13T03:40:04.317Z,14.63
2023-01-13T03:42:22.356Z,14.60
2023-01-13T03:44:41.760Z,14.57
2023-01-13T03:47:01.482Z,14.54
2023-01-13T03:49:17.680Z,14.51
2023-01-13T03:51:34.890Z,14.49
2023-01-13T03:53:54.863Z,14.46
2023-01-13T03:56:15.632Z,14.43
2023-01-13T03:58:32.683Z,14.36
2023-01-13T04:00:51.446Z,14.26
2023-01-13T04:03:10.696Z,14.12
2023-01-13T04:05:24.432Z,13.99
2023-01-13T04:07:48.951Z,13.88
2023-01-13T04:10:03.669Z,13.77
2023-01-13T04:12:21.008Z,13.66
2023-01-13T04:14:35.050Z,13.56
2023-01-13T04:16:48.032Z,13.48
2023-01-13T04:19:01.065Z,13.38
2023-01-13T04:21:14.302Z,13.32
2023-01-13T04:23:28.961Z,13.27
2023-01-13T04:25:42.721Z,13.21
2023-01-13T04:27:56.168Z,13.15
2023-01-13T04:30:11.234Z,13.09
2023-01-13T04:32:24.208Z,13.05
2023-01-13T04:34:37.035Z,13.01
2023-01-13T04:36:50.761Z,12.96
2023-01-13T04:39:04.478Z,12.90
2023-01-13T04:41:17.576Z,12.87
2023-01-13T04:43:30.743Z,12.83
2023-01-13T04:45:44.407Z,12.78
2023-01-13T04:47:57.360Z,12.74
2023-01-13T04:50:12.465Z,12.72
2023-01-13T04:52:25.828Z,12.70
2023-01-13T04:54:39.413Z,12.67
2023-01-13T04:56:52.813Z,12.66
2023-01-13T04:59:06.593Z,12.66
2023-01-13T05:01:19.610Z,12.66
2023-01-13T05:03:33.054Z,12.65
2023-01-13T05:05:46.570Z,12.65
2023-01-13T05:08:00.952Z,12.63
2023-01-13T05:10:16.093Z,12.63
2023-01-13T05:12:51.603Z,12.62
2023-01-13T05:15:21.598Z,12.62
2023-01-13T05:17:35.141Z,12.62
2023-01-13T05:19:47.997Z,12.64
2023-01-13T05:22:18.311Z,12.64
2023-01-13T05:24:48.121Z,12.61
2023-01-13T05:27:01.290Z,12.57
2023-01-13T05:29:14.286Z,12.56
2023-01-13T05:31:27.344Z,12.53
2023-01-13T05:33:40.708Z,12.52
2023-01-13T05:35:53.783Z,12.50
2023-01-13T05:38:07.596Z,12.48
2023-01-13T05:40:38.840Z,12.42
2023-01-13T05:43:20.139Z,12.39
2023-01-13T05:45:33.260Z,12.36
2023-01-13T05:47:46.342Z,12.35
2023-01-13T05:49:59.674Z,12.33
2023-01-13T05:52:13.201Z,12.32
2023-01-13T05:54:26.109Z,12.29
2023-01-13T05:56:39.240Z,12.26
2023-01-13T05:58:52.938Z,12.26
2023-01-13T06:01:08.762Z,12.25
2023-01-13T06:03:23.337Z,12.24
2023-01-13T06:05:36.614Z,12.26
2023-01-13T06:07:49.699Z,12.27
2023-01-13T06:10:02.666Z,12.25
2023-01-13T06:12:17.517Z,12.22
2023-01-13T06:14:41.212Z,12.19
2023-01-13T06:16:54.440Z,12.17
2023-01-13T06:19:10.232Z,12.17
2023-01-13T06:21:23.344Z,12.14
2023-01-13T06:23:39.829Z,12.12
2023-01-13T06:25:58.903Z,12.09
2023-01-13T06:28:11.911Z,12.07
2023-01-13T06:30:25.310Z,12.07
2023-01-13T06:32:43.504Z,12.06
2023-01-13T06:35:06.234Z,12.06
2023-01-13T06:37:26.513Z,12.06
2023-01-13T06:39:40.231Z,12.06
2023-01-13T06:42:12.707Z,12.07
2023-01-13T06:44:27.145Z,12.06
2023-01-13T06:46:41.174Z,12.05
2023-01-13T06:48:54.161Z,12.03
2023-01-13T06:51:07.231Z,12.00
2023-01-13T06:53:20.954Z,11.96
2023-01-13T06:55:34.397Z,11.95
2023-01-13T06:57:56.863Z,11.95
2023-01-13T07:00:11.623Z,11.94
2023-01-13T07:02:24.802Z,11.91
2023-01-13T07:04:38.391Z,11.90
2023-01-13T07:06:52.204Z,11.89
2023-01-13T07:09:06.779Z,11.89
2023-01-13T07:11:20.548Z,11.89
2023-01-13T07:13:49.891Z,11.89
2023-01-13T07:16:04.616Z,11.90
2023-01-13T07:18:17.681Z,11.90
2023-01-13T07:20:31.158Z,11.89
2023-01-13T07:22:44.090Z,11.88
2023-01-13T07:24:57.732Z,11.88
2023-01-13T07:27:11.000Z,11.88
2023-01-13T07:29:24.141Z,11.87
2023-01-13T07:31:37.724Z,11.88
2023-01-13T07:33:50.702Z,11.89
2023-01-13T07:36:05.139Z,11.91
2023-01-13T07:38:19.311Z,11.92
2023-01-13T07:40:33.121Z,11.96
2023-01-13T07:43:02.854Z,12.00
2023-01-13T07:45:16.998Z,12.05
2023-01-13T07:47:30.095Z,12.09
2023-01-13T07:49:43.060Z,12.12
2023-01-13T07:51:56.908Z,12.15
2023-01-13T07:54:09.996Z,12.18
2023-01-13T07:56:23.055Z,12.21
2023-01-13T07:58:36.826Z,12.23
2023-01-13T08:00:49.892Z,12.26
2023-01-13T08:03:06.703Z,12.27
2023-01-13T08:05:20.674Z,12.27
2023-01-13T08:07:33.478Z,12.30
2023-01-13T08:09:46.385Z,12.32
2023-01-13T08:12:15.323Z,12.33
2023-01-13T08:14:28.837Z,12.34
2023-01-13T08:16:42.545Z,12.35
2023-01-13T08:18:55.596Z,12.34
2023-01-13T08:21:12.224Z,12.35
2023-01-13T08:23:26.811Z,12.36
2023-01-13T08:25:40.064Z,12.38
2023-01-13T08:27:54.643Z,12.40
2023-01-13T08:30:08.747Z,12.42
2023-01-13T08:32:21.970Z,12.44
2023-01-13T08:34:34.933Z,12.46
2023-01-13T08:36:47.752Z,12.48
2023-01-13T08:39:00.671Z,12.49
2023-01-13T08:41:38.038Z,12.52
2023-01-13T08:43:50.962Z,12.56
2023-01-13T08:46:06.976Z,12.65
2023-01-13T08:48:20.115Z,12.72
2023-01-13T08:50:33.138Z,12.78
2023-01-13T08:52:47.371Z,12.83
2023-01-13T08:55:00.327Z,12.87
2023-01-13T08:57:14.081Z,12.90
2023-01-13T08:59:27.113Z,12.91
2023-01-13T09:01:42.206Z,12.93
2023-01-13T09:03:55.744Z,12.94
2023-01-13T09:06:09.448Z,12.93
2023-01-13T09:08:22.493Z,12.94
2023-01-13T09:10:36.918Z,12.94
2023-01-13T09:13:06.409Z,12.92
2023-01-13T09:15:20.705Z,12.89
2023-01-13T09:17:34.182Z,12.90
2023-01-13T09:19:47.323Z,12.91
2023-01-13T09:22:00.538Z,12.89
2023-01-13T09:24:14.551Z,12.87
2023-01-13T09:26:27.921Z,12.86
2023-01-13T09:28:41.650Z,12.84
2023-01-13T09:30:54.697Z,12.83
2023-01-13T09:33:24.570Z,12.82
2023-01-13T09:35:39.630Z,12.81
2023-01-13T09:37:56.189Z,12.80
2023-01-13T09:40:13.031Z,12.82
2023-01-13T09:42:50.923Z,12.85
2023-01-13T09:45:07.928Z,12.87
2023-01-13T09:47:26.471Z,12.86
2023-01-13T09:49:42.418Z,12.83
2023-01-13T09:52:00.923Z,12.81
2023-01-13T09:54:21.143Z,12.80
2023-01-13T09:56:34.664Z,12.74
2023-01-13T09:58:48.902Z,12.70
2023-01-13T10:01:17.762Z,12.67
2023-01-13T10:03:33.274Z,12.63
2023-01-13T10:05:48.483Z,12.57
2023-01-13T10:08:06.555Z,12.50
2023-01-13T10:10:25.032Z,12.44
2023-01-13T10:12:55.425Z,12.37
2023-01-13T10:15:08.986Z,12.29
2023-01-13T10:17:30.794Z,12.25
2023-01-13T10:19:48.902Z,12.22
2023-01-13T10:22:26.967Z,12.20
2023-01-13T10:25:03.775Z,12.16
2023-01-13T10:27:25.135Z,12.15
2023-01-13T10:29:39.650Z,12.12
2023-01-13T10:31:52.482Z,12.09
2023-01-13T10:34:08.759Z,12.07
2023-01-13T10:36:24.103Z,12.04
2023-01-13T10:38:43.504Z,12.02
2023-01-13T10:40:58.283Z,12.00
2023-01-13T10:43:15.644Z,11.97
2023-01-13T10:45:32.115Z,11.94
2023-01-13T10:47:45.652Z,11.92
2023-01-13T10:50:23.542Z,11.89
2023-01-13T10:52:40.617Z,11.86
2023-01-13T10:54:59.088Z,11.84
2023-01-13T10:57:25.985Z,11.82
2023-01-13T10:59:39.172Z,11.79
2023-01-13T11:02:04.044Z,11.77
2023-01-13T11:04:38.135Z,11.75
2023-01-13T11:06:53.422Z,11.72
2023-01-13T11:09:06.591Z,11.71
2023-01-13T11:11:45.375Z,11.71
2023-01-13T11:14:20.953Z,11.70
2023-01-13T11:16:34.462Z,11.68
2023-01-13T11:19:03.380Z,11.67
2023-01-13T11:21:24.995Z,11.68
2023-01-13T11:23:43.072Z,11.68
2023-01-13T11:26:06.355Z,11.70
2023-01-13T11:28:43.215Z,11.71
2023-01-13T11:31:03.866Z,11.70
2023-01-13T11:33:39.442Z,11.67
2023-01-13T11:36:00.442Z,11.66
2023-01-13T11:38:22.334Z,11.67
2023-01-13T11:40:41.244Z,11.68
2023-01-13T11:42:58.232Z,11.69
2023-01-13T11:45:20.152Z,11.70
2023-01-13T11:47:33.512Z,11.73
2023-01-13T11:49:49.776Z,11.76
2023-01-13T11:52:09.872Z,11.78
2023-01-13T11:54:39.410Z,11.80
2023-01-13T11:57:14.943Z,11.82
2023-01-13T11:59:56.934Z,11.82
2023-01-13T12:02:29.550Z,11.83
2023-01-13T12:04:56.821Z,11.82
2023-01-13T12:07:17.743Z,11.80
2023-01-13T12:09:49.013Z,11.78
2023-01-13T12:12:28.622Z,11.74
2023-01-13T12:14:50.908Z,11.70
2023-01-13T12:17:08.792Z,11.66
2023-01-13T12:19:29.158Z,11.61
2023-01-13T12:21:49.775Z,11.58
2023-01-13T12:24:18.269Z,11.54
2023-01-13T12:26:33.381Z,11.49
2023-01-13T12:28:53.415Z,11.44
2023-01-13T12:31:08.485Z,11.43
2023-01-13T12:33:32.415Z,11.43
2023-01-13T12:35:51.327Z,11.43
2023-01-13T12:38:12.425Z,11.41
2023-01-13T12:40:39.768Z,11.41
2023-01-13T12:43:15.044Z,11.40
2023-01-13T12:45:31.543Z,11.41
2023-01-13T12:47:46.564Z,11.41
2023-01-13T12:50:36.383Z,11.40
2023-01-13T12:52:52.081Z,11.39
2023-01-13T12:55:19.054Z,11.39
2023-01-13T12:57:32.806Z,11.39
2023-01-13T12:59:52.721Z,11.38
2023-01-13T13:02:38.488Z,11.38
2023-01-13T13:04:53.479Z,11.37
2023-01-13T13:07:13.863Z,11.36
2023-01-13T13:09:32.671Z,11.35
2023-01-13T13:12:05.606Z,11.35
2023-01-13T13:14:39.599Z,11.36
2023-01-13T13:16:55.538Z,11.36
2023-01-13T13:19:37.421Z,11.37
2023-01-13T13:22:20.343Z,11.39
2023-01-13T13:24:34.941Z,11.42
2023-01-13T13:26:49.553Z,11.43
2023-01-13T13:29:23.776Z,11.45
2023-01-13T13:31:53.781Z,11.47
2023-01-13T13:34:33.862Z,11.48
2023-01-13T13:37:07.620Z,11.49
2023-01-13T13:39:46.394Z,11.49
2023-01-13T13:42:22.426Z,11.49
2023-01-13T13:44:56.404Z,11.48
2023-01-13T13:47:11.543Z,11.47
2023-01-13T13:49:37.925Z,11.47
2023-01-13T13:51:58.255Z,11.46
2023-01-13T13:54:13.491Z,11.46
2023-01-13T13:56:30.078Z,11.45
2023-01-13T13:58:43.823Z,11.44
2023-01-13T14:01:02.019Z,11.43
2023-01-13T14:03:29.529Z,11.42
2023-01-13T14:05:43.379Z,11.41
2023-01-13T14:08:03.034Z,11.41
2023-01-13T14:10:23.395Z,11.41
2023-01-13T14:12:43.640Z,11.40
2023-01-13T14:14:58.659Z,11.39
2023-01-13T14:17:21.808Z,11.38
2023-01-13T14:19:45.277Z,11.37
2023-01-13T14:22:02.015Z,11.36
2023-01-13T14:24:22.316Z,11.36
2023-01-13T14:26:36.727Z,11.36
2023-01-13T14:28:50.976Z,11.36
2023-01-13T14:31:04.408Z,11.35
2023-01-13T14:33:20.333Z,11.35
2023-01-13T14:35:33.247Z,11.34
2023-01-13T14:37:47.337Z,11.34
2023-01-13T14:40:01.735Z,11.33
2023-01-13T14:42:20.343Z,11.32
2023-01-13T14:44:36.608Z,11.31
2023-01-13T14:46:51.090Z,11.30
2023-01-13T14:49:08.056Z,11.30
2023-01-13T14:51:29.091Z,11.30
2023-01-13T14:53:47.928Z,11.29
2023-01-13T14:56:01.747Z,11.29
2023-01-13T14:58:32.025Z,11.28
2023-01-13T15:00:44.903Z,11.29
2023-01-13T15:03:12.174Z,11.27
2023-01-13T15:05:50.674Z,11.26
2023-01-13T15:08:05.709Z,11.24
2023-01-13T15:10:22.054Z,11.23
2023-01-13T15:12:40.813Z,11.23
2023-01-13T15:14:55.766Z,11.22
2023-01-13T15:17:12.525Z,11.22
2023-01-13T15:19:25.716Z,11.22
2023-01-13T15:21:39.558Z,11.23
2023-01-13T15:23:52.545Z,11.23
2023-01-13T15:26:06.726Z,11.22
2023-01-13T15:28:23.890Z,11.22
2023-01-13T15:30:37.851Z,11.22
2023-01-13T15:32:51.245Z,11.22
2023-01-13T15:35:05.205Z,11.22
2023-01-13T15:37:18.736Z,11.22
2023-01-13T15:39:32.828Z,11.22
2023-01-13T15:42:02.559Z,11.23
2023-01-13T15:44:34.022Z,11.23
2023-01-13T15:46:48.572Z,11.24
2023-01-13T15:49:04.040Z,11.23
2023-01-13T15:51:18.782Z,11.23
2023-01-13T15:53:32.273Z,11.22
2023-01-13T15:55:48.362Z,11.22
2023-01-13T15:58:03.139Z,11.23
2023-01-13T16:00:21.943Z,11.23
2023-01-13T16:02:35.153Z,11.23
2023-01-13T16:04:48.967Z,11.23
2023-01-13T16:07:02.728Z,11.24
2023-01-13T16:09:18.048Z,11.24
2023-01-13T16:11:31.235Z,11.24
2023-01-13T16:13:44.221Z,11.25
2023-01-13T16:15:57.810Z,11.25
2023-01-13T16:18:17.927Z,11.26
2023-01-13T16:20:31.598Z,11.28
2023-01-13T16:22:44.779Z,11.28
2023-01-13T16:24:57.936Z,11.29
2023-01-13T16:27:17.330Z,11.30
2023-01-13T16:29:31.142Z,11.32
2023-01-13T16:31:44.896Z,11.31
2023-01-13T16:33:58.295Z,11.31
2023-01-13T16:36:18.039Z,11.31
2023-01-13T16:38:31.639Z,11.31
2023-01-13T16:40:44.976Z,11.31
2023-01-13T16:42:58.329Z,11.33
2023-01-13T16:45:12.830Z,11.35
2023-01-13T16:47:26.520Z,11.36
2023-01-13T16:49:39.774Z,11.39
2023-01-13T16:51:53.118Z,11.41
2023-01-13T16:54:07.443Z,11.43
2023-01-13T16:56:31.288Z,11.44
2023-01-13T16:58:45.896Z,11.44
2023-01-13T17:01:00.000Z,11.44
2023-01-13T17:03:14.048Z,11.44
2023-01-13T17:05:27.239Z,11.44
2023-01-13T17:07:40.360Z,11.43
2023-01-13T17:09:53.663Z,11.43
2023-01-13T17:12:08.263Z,11.43
2023-01-13T17:14:24.581Z,11.42
2023-01-13T17:16:39.326Z,11.41
2023-01-13T17:18:53.833Z,11.41
2023-01-13T17:21:08.248Z,11.40
2023-01-13T17:23:21.532Z,11.39
2023-01-13T17:25:34.637Z,11.39
2023-01-13T17:27:48.888Z,11.38
2023-01-13T17:30:02.404Z,11.37
2023-01-13T17:32:17.962Z,11.39
2023-01-13T17:34:31.533Z,11.40
2023-01-13T17:36:47.985Z,11.43
2023-01-13T17:39:01.317Z,11.48
2023-01-13T17:41:15.091Z,11.52
2023-01-13T17:43:30.017Z,11.54
2023-01-13T17:45:46.724Z,11.59
2023-01-13T17:48:02.136Z,11.64
2023-01-13T17:50:16.238Z,11.69
2023-01-13T17:52:29.778Z,11.71
2023-01-13T17:54:45.041Z,11.75
2023-01-13T17:56:58.364Z,11.77
2023-01-13T17:59:12.791Z,11.79
2023-01-13T18:01:31.895Z,11.81
2023-01-13T18:03:46.435Z,11.82
2023-01-13T18:06:05.295Z,11.82
2023-01-13T18:08:18.418Z,11.82
2023-01-13T18:10:32.346Z,11.83
2023-01-13T18:12:45.327Z,11.83
2023-01-13T18:14:58.259Z,11.85
2023-01-13T18:17:11.201Z,11.88
2023-01-13T18:19:41.717Z,11.90
2023-01-13T18:22:11.783Z,11.91
2023-01-13T18:24:40.840Z,11.91
2023-01-13T18:27:10.765Z,11.92
2023-01-13T18:29:24.713Z,11.93
2023-01-13T18:31:37.684Z,11.94
2023-01-13T18:33:50.414Z,11.93
2023-01-13T18:36:09.115Z,11.94
2023-01-13T18:38:23.232Z,11.95
2023-01-13T18:40:36.421Z,11.97
2023-01-13T18:42:56.774Z,11.99
2023-01-13T18:45:10.692Z,11.99
2023-01-13T18:47:23.712Z,11.98
2023-01-13T18:49:37.773Z,12.00
2023-01-13T18:51:50.733Z,12.02
2023-01-13T18:54:03.983Z,12.03
2023-01-13T18:56:18.144Z,12.03
2023-01-13T18:58:31.734Z,12.01
2023-01-13T19:00:44.904Z,11.99
2023-01-13T19:05:19.593Z,12.01
2023-01-13T19:07:33.423Z,12.05
2023-01-13T19:09:46.559Z,12.07
2023-01-13T19:12:00.317Z,12.09
2023-01-13T19:14:13.355Z,12.09
2023-01-13T19:16:26.937Z,12.08
2023-01-13T19:18:40.245Z,12.09
2023-01-13T19:20:53.173Z,12.10
2023-01-13T19:23:06.074Z,12.10
2023-01-13T19:25:19.134Z,12.09
2023-01-13T19:27:32.496Z,12.09
2023-01-13T19:29:48.441Z,12.08
2023-01-13T19:32:06.723Z,12.03
2023-01-13T19:34:20.150Z,11.96
2023-01-13T19:36:33.604Z,11.92
2023-01-13T19:38:46.940Z,11.87
2023-01-13T19:41:01.337Z,11.82
2023-01-13T19:43:31.457Z,11.78
2023-01-13T19:45:45.907Z,11.76
2023-01-13T19:47:58.964Z,11.73
2023-01-13T19:50:13.227Z,11.72
2023-01-13T19:52:27.812Z,11.75
2023-01-13T19:54:41.185Z,11.77
2023-01-13T19:56:56.208Z,11.80
2023-01-13T19:59:10.097Z,11.84
2023-01-13T20:01:26.044Z,11.87
2023-01-13T20:03:40.107Z,11.90
2023-01-13T20:05:53.834Z,11.94
2023-01-13T20:08:07.158Z,11.98
2023-01-13T20:10:21.745Z,12.05
2023-01-13T20:12:34.748Z,12.10
2023-01-13T20:14:48.718Z,12.15
2023-01-13T20:17:02.498Z,12.20
2023-01-13T20:19:16.387Z,12.24
2023-01-13T20:21:29.838Z,12.29
2023-01-13T20:23:43.037Z,12.34
2023-01-13T20:25:56.425Z,12.39
2023-01-13T20:28:09.677Z,12.41
2023-01-13T20:30:22.750Z,12.44
2023-01-13T20:32:36.338Z,12.50
2023-01-13T20:34:49.879Z,12.54
2023-01-13T20:37:04.021Z,12.58
2023-01-13T20:39:23.940Z,12.62
2023-01-13T20:41:53.837Z,12.66
2023-01-13T20:44:08.699Z,12.69
2023-01-13T20:46:22.083Z,12.72
2023-01-13T20:48:35.090Z,12.73
2023-01-13T20:50:48.210Z,12.73
2023-01-13T20:53:01.341Z,12.76
2023-01-13T20:55:18.350Z,12.79
2023-01-13T20:57:31.240Z,12.83
2023-01-13T20:59:44.768Z,12.88
2023-01-13T21:01:59.219Z,12.91
2023-01-13T21:04:12.978Z,12.95
2023-01-13T21:06:26.677Z,12.98
2023-01-13T21:08:40.463Z,13.03
2023-01-13T21:10:53.788Z,13.06
2023-01-13T21:13:23.999Z,13.07
2023-01-13T21:15:37.530Z,13.08
2023-01-13T21:18:07.796Z,13.12
2023-01-13T21:20:20.751Z,13.12
2023-01-13T21:22:33.888Z,13.12
2023-01-13T21:24:46.818Z,13.14
2023-01-13T21:27:01.267Z,13.15
2023-01-13T21:29:14.687Z,13.17
2023-01-13T21:31:28.025Z,13.16
2023-01-13T21:33:41.140Z,13.16
2023-01-13T21:35:54.601Z,13.18
2023-01-13T21:38:08.879Z,13.20
2023-01-13T21:40:22.278Z,13.23
2023-01-13T21:42:51.889Z,13.27
2023-01-13T21:45:21.610Z,13.34
2023-01-13T21:47:53.480Z,13.36
2023-01-13T21:50:07.647Z,13.39
2023-01-13T21:52:21.778Z,13.41
2023-01-13T21:54:34.731Z,13.42
2023-01-13T21:56:48.096Z,13.42
2023-01-13T21:59:01.330Z,13.42
2023-01-13T22:01:14.174Z,13.43
2023-01-13T22:03:27.453Z,13.43
2023-01-13T22:05:41.010Z,13.45
2023-01-13T22:07:54.979Z,13.48
2023-01-13T22:10:08.784Z,13.50
2023-01-13T22:12:24.564Z,13.55
2023-01-13T22:14:37.602Z,13.60
2023-01-13T22:16:51.864Z,13.58
2023-01-13T22:19:05.551Z,13.59
2023-01-13T22:21:19.097Z,13.62
2023-01-13T22:23:32.741Z,13.64
2023-01-13T22:25:45.936Z,13.64
2023-01-13T22:28:04.911Z,13.65
2023-01-13T22:30:20.167Z,13.63
2023-01-13T22:32:33.189Z,13.60
2023-01-13T22:34:46.349Z,13.59
2023-01-13T22:36:59.401Z,13.57
2023-01-13T22:39:13.430Z,13.55
2023-01-13T22:41:26.579Z,13.53
2023-01-13T22:43:40.389Z,13.52
2023-01-13T22:46:02.960Z,13.49
2023-01-13T22:48:13.357Z,13.50
2023-01-13T22:50:26.414Z,13.48
2023-01-13T22:52:39.646Z,13.48
2023-01-13T22:54:53.273Z,13.50
2023-01-13T22:57:06.954Z,13.47
2023-01-13T22:59:23.059Z,13.45
2023-01-13T23:01:38.331Z,13.44
2023-01-13T23:03:53.571Z,13.42
2023-01-13T23:06:07.855Z,13.40
2023-01-13T23:08:21.098Z,13.38
2023-01-13T23:10:34.136Z,13.36
2023-01-13T23:12:50.181Z,13.34
2023-01-13T23:15:03.929Z,13.32
2023-01-13T23:17:17.261Z,13.29
2023-01-13T23:19:31.050Z,13.24
2023-01-13T23:21:44.569Z,13.20
2023-01-13T23:23:59.027Z,13.19
2023-01-13T23:26:13.561Z,13.17
2023-01-13T23:28:26.431Z,13.15
2023-01-13T23:30:42.856Z,13.13
2023-01-13T23:32:56.072Z,13.08
2023-01-13T23:35:10.079Z,13.06
2023-01-13T23:37:23.504Z,13.00
2023-01-13T23:39:36.631Z,12.98
2023-01-13T23:41:49.590Z,12.98
2023-01-13T23:44:04.135Z,12.95
2023-01-13T23:46:18.262Z,12.91
2023-01-13T23:48:31.898Z,12.88
2023-01-13T23:50:45.100Z,12.85
2023-01-13T23:52:58.043Z,12.84
2023-01-13T23:55:11.972Z,12.83
2023-01-13T23:57:25.249Z,12.82
2023-01-13T23:59:38.513Z,12.81
